Time;durP1;ratioP1;P1;durP2;ratioP2;P2;SDS_P1;SDS_P2;PMS_P1;PMS_P2;Temp;Humidity;BMP_temperature;BMP_pressure;BME280_temperature;BME280_humidity;BME280_pressure;Samples;Min_cycle;Max_cycle;Signal;HPM_P1;HPM_P2
2023/03/07 00:01:09;;;;;;;64.20;36.50;;;;;;;-1.06;82.32;98758.20;103153;1257;108621;-68
2023/03/07 00:03:42;;;;;;;65.70;36.50;;;;;;;-1.06;81.88;98757.52;103217;1260;98351;-68
2023/03/07 00:06:12;;;;;;;65.60;35.80;;;;;;;-1.06;81.93;98757.02;103223;1260;107532;-68
2023/03/07 00:08:40;;;;;;;59.90;34.20;;;;;;;-1.06;81.76;98757.70;103247;1260;97655;-68
2023/03/07 00:11:09;;;;;;;65.60;36.00;;;;;;;-1.07;81.74;98755.30;103080;1260;139070;-68
2023/03/07 00:13:38;;;;;;;66.90;35.40;;;;;;;-1.08;81.59;98758.37;103164;1260;108131;-67
2023/03/07 00:16:07;;;;;;;67.10;34.80;;;;;;;-1.09;81.51;98753.77;102340;1257;1003251;-67
2023/03/07 00:18:36;;;;;;;64.10;35.00;;;;;;;-1.08;81.46;98755.30;103326;1257;107900;-68
2023/03/07 00:21:09;;;;;;;65.60;35.20;;;;;;;-1.07;81.60;98753.95;103176;1257;98390;-67
2023/03/07 00:23:38;;;;;;;71.90;36.30;;;;;;;-1.08;81.46;98756.83;103187;1257;138659;-67
2023/03/07 00:26:18;;;;;;;65.00;35.50;;;;;;;-1.08;81.38;98755.64;103202;1257;108124;-67
2023/03/07 00:28:48;;;;;;;60.70;34.90;;;;;;;-1.10;81.62;98755.14;103098;1259;138586;-68
2023/03/07 00:31:36;;;;;;;66.40;34.70;;;;;;;-1.10;81.62;98755.31;103111;1260;110618;-67
2023/03/07 00:34:07;;;;;;;66.80;35.40;;;;;;;-1.08;81.53;98754.29;103085;1258;138940;-68
2023/03/07 00:36:37;;;;;;;70.30;36.20;;;;;;;-1.06;81.68;98758.71;103174;1258;112024;-67
2023/03/07 00:39:25;;;;;;;64.10;35.50;;;;;;;-1.06;81.79;98753.94;103232;1257;108318;-68
2023/03/07 00:42:06;;;;;;;63.00;34.10;;;;;;;-1.06;81.59;98749.67;102690;1257;1002747;-68
2023/03/07 00:44:34;;;;;;;61.90;33.60;;;;;;;-1.07;81.40;98748.48;102476;1257;1002687;-67
2023/03/07 00:47:02;;;;;;;67.20;34.50;;;;;;;-1.08;81.32;98746.59;102369;1260;1003029;-67
2023/03/07 00:49:30;;;;;;;63.80;34.00;;;;;;;-1.11;81.14;98748.00;103245;1257;112173;-67
2023/03/07 00:51:58;;;;;;;60.80;31.80;;;;;;;-1.13;81.08;98747.34;103163;1257;138969;-68
2023/03/07 00:54:26;;;;;;;56.60;31.30;;;;;;;-1.16;80.86;98748.73;103144;1258;98374;-67
2023/03/07 00:56:54;;;;;;;59.00;31.10;;;;;;;-1.18;80.72;98753.70;103078;1256;107153;-68
2023/03/07 00:59:21;;;;;;;54.30;30.20;;;;;;;-1.19;80.78;98746.55;103167;1258;138936;-68
2023/03/07 01:02:00;;;;;;;51.50;29.60;;;;;;;-1.23;80.60;98747.27;103214;1257;112280;-67
2023/03/07 01:04:28;;;;;;;51.40;27.90;;;;;;;-1.22;80.60;98750.33;102888;1263;138804;-67
2023/03/07 01:06:55;;;;;;;42.40;24.10;;;;;;;-1.22;80.33;98747.42;103210;1258;97877;-68
2023/03/07 01:09:23;;;;;;;42.60;23.40;;;;;;;-1.23;79.96;98750.69;103185;1262;106787;-69
2023/03/07 01:11:52;;;;;;;42.30;23.70;;;;;;;-1.25;79.76;98747.80;103309;1258;138757;-68
2023/03/07 01:14:19;;;;;;;41.90;22.80;;;;;;;-1.27;79.78;98751.04;103299;1257;110057;-67
2023/03/07 01:16:46;;;;;;;43.90;23.90;;;;;;;-1.29;79.56;98747.30;103051;1257;138793;-68
2023/03/07 01:19:14;;;;;;;42.00;22.10;;;;;;;-1.31;79.45;98748.17;103209;1260;98206;-68
2023/03/07 01:21:43;;;;;;;36.00;21.00;;;;;;;-1.33;79.05;98745.48;103213;1257;110236;-68
2023/03/07 01:24:14;;;;;;;39.30;21.20;;;;;;;-1.38;78.75;98741.42;103585;1258;97964;-68
2023/03/07 01:26:45;;;;;;;41.30;20.90;;;;;;;-1.46;78.70;98740.62;103239;1260;110659;-68
2023/03/07 01:29:13;;;;;;;35.90;21.00;;;;;;;-1.51;78.81;98741.02;103114;1257;138792;-67
2023/03/07 01:31:41;;;;;;;37.40;21.00;;;;;;;-1.57;78.90;98738.69;102531;1259;1002905;-68
2023/03/07 01:34:08;;;;;;;37.70;20.80;;;;;;;-1.63;78.56;98736.50;103418;1258;139232;-68
2023/03/07 01:36:39;;;;;;;37.30;20.80;;;;;;;-1.68;78.89;98738.25;103293;1257;97810;-68
2023/03/07 01:39:09;;;;;;;37.70;21.70;;;;;;;-1.73;78.85;98738.80;103180;1258;109677;-68
2023/03/07 01:41:40;;;;;;;39.20;21.90;;;;;;;-1.80;78.87;98737.81;103163;1260;138808;-68
2023/03/07 01:44:19;;;;;;;39.00;20.70;;;;;;;-1.84;78.84;98737.15;103213;1257;97775;-68
2023/03/07 01:46:51;;;;;;;39.30;21.70;;;;;;;-1.92;79.02;98736.19;103503;1260;138628;-68
2023/03/07 01:49:32;;;;;;;43.00;22.60;;;;;;;-1.98;78.96;98733.67;102574;1257;1002375;-69
2023/03/07 01:52:14;;;;;;;44.40;22.00;;;;;;;-2.03;79.16;98732.00;103068;1258;139120;-68
2023/03/07 01:54:51;;;;;;;47.70;23.00;;;;;;;-2.09;79.25;98729.66;103034;1256;107288;-68
2023/03/07 01:57:23;;;;;;;42.00;22.70;;;;;;;-2.13;79.28;98730.55;102499;1258;1002753;-68
2023/03/07 01:59:57;;;;;;;39.90;22.10;;;;;;;-2.17;79.36;98731.39;102864;1258;138973;-68
2023/03/07 02:02:26;;;;;;;41.60;21.80;;;;;;;-2.20;79.41;98725.11;103129;1257;98157;-68
2023/03/07 02:05:00;;;;;;;39.10;21.40;;;;;;;-2.24;79.34;98725.15;102216;1261;1003166;-68
2023/03/07 02:07:33;;;;;;;42.90;22.50;;;;;;;-2.30;79.33;98726.02;103060;1256;108145;-68
2023/03/07 02:10:01;;;;;;;38.90;21.20;;;;;;;-2.35;79.43;98726.37;103041;1257;139398;-68
2023/03/07 02:12:32;;;;;;;40.90;22.50;;;;;;;-2.39;79.67;98729.64;102466;1260;1003745;-69
2023/03/07 02:15:00;;;;;;;43.70;22.70;;;;;;;-2.43;79.52;98727.61;103045;1257;97815;-67
2023/03/07 02:17:31;;;;;;;43.00;23.90;;;;;;;-2.48;79.78;98732.91;102981;1257;138713;-68
2023/03/07 02:20:10;;;;;;;51.10;26.10;;;;;;;-2.50;79.84;98731.57;102371;1257;1003499;-68
2023/03/07 02:22:41;;;;;;;50.40;27.70;;;;;;;-2.54;79.66;98734.63;103130;1258;138954;-68
2023/03/07 02:25:17;;;;;;;57.60;30.70;;;;;;;-2.56;80.18;98734.98;102234;1258;1003010;-69
2023/03/07 02:27:50;;;;;;;66.40;33.00;;;;;;;-2.59;80.30;98735.33;101553;1258;1002963;-68
2023/03/07 02:30:18;;;;;;;64.10;33.30;;;;;;;-2.61;80.50;98734.32;102381;1260;1003081;-68
2023/03/07 02:32:48;;;;;;;68.40;35.10;;;;;;;-2.63;80.90;98729.91;101619;1260;1002857;-69
2023/03/07 02:35:19;;;;;;;69.90;36.80;;;;;;;-2.65;80.97;98729.42;102329;1256;1003509;-69
2023/03/07 02:37:52;;;;;;;70.20;36.70;;;;;;;-2.66;81.19;98732.48;102415;1257;1003652;-69
2023/03/07 02:40:23;;;;;;;73.40;38.70;;;;;;;-2.69;81.34;98734.17;103111;1257;139480;-69
2023/03/07 02:43:12;;;;;;;72.40;37.10;;;;;;;-2.72;81.29;98731.45;102492;1257;1003449;-69
2023/03/07 02:45:42;;;;;;;74.10;38.20;;;;;;;-2.75;81.10;98732.15;103170;1258;107644;-69
2023/03/07 02:48:10;;;;;;;74.20;37.80;;;;;;;-2.80;81.45;98733.70;103930;1257;98367;-67
2023/03/07 02:50:40;;;;;;;79.10;39.00;;;;;;;-2.84;81.54;98728.27;103193;1260;109317;-67
2023/03/07 02:53:08;;;;;;;74.00;39.80;;;;;;;-2.89;81.51;98728.27;102377;1260;1002845;-67
2023/03/07 02:55:36;;;;;;;76.40;40.30;;;;;;;-2.91;81.77;98729.98;103184;1257;111929;-67
2023/03/07 02:58:03;;;;;;;82.30;41.60;;;;;;;-2.93;82.05;98732.54;102430;1257;1003064;-67
2023/03/07 03:00:31;;;;;;;89.00;44.40;;;;;;;-2.94;82.19;98734.08;103031;1258;97830;-69
2023/03/07 03:02:58;;;;;;;97.70;43.30;;;;;;;-2.95;82.56;98730.67;102921;1257;1002937;-67
2023/03/07 03:05:29;;;;;;;101.80;45.50;;;;;;;-2.98;82.34;98734.60;103223;1256;138986;-67
2023/03/07 03:07:56;;;;;;;107.10;46.30;;;;;;;-2.98;82.91;98731.55;102500;1256;1003644;-68
2023/03/07 03:10:42;;;;;;;113.20;47.90;;;;;;;-2.98;82.76;98730.52;103099;1258;139262;-67
2023/03/07 03:13:20;;;;;;;113.50;44.00;;;;;;;-3.00;83.04;98730.36;102403;1261;1015865;-67
2023/03/07 03:15:48;;;;;;;161.80;45.30;;;;;;;-3.02;82.82;98729.18;103527;1258;108183;-69
2023/03/07 03:18:18;;;;;;;124.00;45.90;;;;;;;-3.08;82.88;98728.83;103210;1256;97794;-68
2023/03/07 03:21:11;;;;;;;120.60;44.90;;;;;;;-3.08;83.13;98728.83;103267;1257;112369;-68
2023/03/07 03:23:39;;;;;;;189.80;44.90;;;;;;;-3.05;83.42;98730.38;103379;1255;1002910;-69
2023/03/07 03:26:10;;;;;;;108.90;44.20;;;;;;;-3.06;83.38;98728.51;102861;1257;410878;-67
2023/03/07 03:28:39;;;;;;;120.90;44.40;;;;;;;-3.09;83.45;98727.47;102948;1260;138914;-69
2023/03/07 03:31:09;;;;;;;114.60;44.50;;;;;;;-3.10;83.39;98725.61;103276;1257;97806;-69
2023/03/07 03:33:38;;;;;;;112.30;44.10;;;;;;;-3.10;83.90;98725.61;103581;1257;111551;-68
2023/03/07 03:36:11;;;;;;;106.70;45.40;;;;;;;-3.09;83.84;98722.20;102469;1257;1002856;-69
2023/03/07 03:38:39;;;;;;;130.40;45.00;;;;;;;-3.07;83.85;98720.48;103225;1261;97808;-69
2023/03/07 03:41:11;;;;;;;107.30;45.00;;;;;;;-3.07;83.85;98723.38;103010;1258;138991;-68
2023/03/07 03:43:39;;;;;;;107.00;44.60;;;;;;;-3.07;83.86;98724.75;103395;1257;97855;-69
2023/03/07 03:46:07;;;;;;;112.40;45.30;;;;;;;-3.10;83.87;98727.98;102392;1259;1004071;-69
2023/03/07 03:48:35;;;;;;;129.80;43.50;;;;;;;-3.13;83.86;98725.79;103199;1257;107550;-69
2023/03/07 03:51:04;;;;;;;106.10;44.20;;;;;;;-3.13;83.81;98723.75;103269;1258;98435;-69
2023/03/07 03:53:37;;;;;;;99.60;43.00;;;;;;;-3.14;83.81;98720.52;102687;1260;1002592;-67
2023/03/07 03:56:08;;;;;;;139.20;44.40;;;;;;;-3.15;83.84;98723.41;102524;1257;1002963;-68
2023/03/07 03:58:57;;;;;;;121.50;44.60;;;;;;;-3.17;83.97;98724.44;102987;1257;139560;-68
2023/03/07 04:01:28;;;;;;;133.90;43.70;;;;;;;-3.20;83.51;98722.75;102335;1261;1003846;-68
2023/03/07 04:04:06;;;;;;;103.30;40.90;;;;;;;-3.22;83.51;98724.29;103118;1256;139214;-68
2023/03/07 04:06:53;;;;;;;85.00;39.20;;;;;;;-3.25;83.56;98722.23;103254;1256;107553;-68
2023/03/07 04:09:21;;;;;;;102.50;41.00;;;;;;;-3.29;83.60;98721.73;103270;1257;97763;-67
2023/03/07 04:11:50;;;;;;;119.50;41.80;;;;;;;-3.32;83.80;98721.56;103114;1260;138722;-68
2023/03/07 04:14:21;;;;;;;135.10;40.40;;;;;;;-3.34;83.46;98722.25;102475;1257;1002928;-68
2023/03/07 04:16:51;;;;;;;106.80;38.90;;;;;;;-3.35;83.80;98721.57;102379;1259;1003644;-68
2023/03/07 04:19:18;;;;;;;125.80;37.90;;;;;;;-3.34;83.70;98720.89;102529;1257;1002728;-70
2023/03/07 04:21:50;;;;;;;179.30;38.10;;;;;;;-3.41;83.25;98720.55;103136;1256;139243;-68
2023/03/07 04:24:17;;;;;;;102.50;38.60;;;;;;;-3.51;82.94;98714.79;103076;1258;111156;-69
2023/03/07 04:26:45;;;;;;;147.40;39.90;;;;;;;-3.56;83.39;98714.63;103051;1256;108232;-68
2023/03/07 04:29:15;;;;;;;105.90;38.80;;;;;;;-3.60;83.81;98718.68;102291;1256;1003700;-68
2023/03/07 04:31:49;;;;;;;112.80;42.30;;;;;;;-3.60;83.74;98720.55;103176;1256;108595;-68
2023/03/07 04:34:17;;;;;;;193.40;40.50;;;;;;;-3.63;84.15;98718.34;102914;1256;139433;-68
2023/03/07 04:36:44;;;;;;;215.40;41.00;;;;;;;-3.66;83.90;98717.66;103269;1256;110861;-68
2023/03/07 04:39:12;;;;;;;118.20;39.80;;;;;;;-3.67;84.37;98712.57;103191;1256;108459;-68
2023/03/07 04:41:40;;;;;;;181.70;39.80;;;;;;;-3.69;83.99;98708.51;102977;1256;139327;-68
2023/03/07 04:44:17;;;;;;;154.80;39.00;;;;;;;-3.72;84.25;98704.27;103350;1256;106688;-68
2023/03/07 04:46:48;;;;;;;177.00;41.40;;;;;;;-3.78;84.18;98707.31;102437;1257;1003548;-68
2023/03/07 04:49:19;;;;;;;195.30;39.90;;;;;;;-3.82;84.30;98711.88;103234;1257;112375;-68
2023/03/07 04:51:47;;;;;;;148.30;40.70;;;;;;;-3.87;84.76;98710.87;103226;1256;108512;-68
2023/03/07 04:54:16;;;;;;;138.20;39.10;;;;;;;-3.91;84.86;98707.14;103183;1255;97801;-68
2023/03/07 04:56:46;;;;;;;179.80;40.60;;;;;;;-3.94;84.95;98702.38;103229;1260;108087;-68
2023/03/07 04:59:14;;;;;;;146.50;41.50;;;;;;;-3.92;85.14;98704.59;103142;1256;139000;-68
2023/03/07 05:01:44;;;;;;;201.50;41.50;;;;;;;-3.92;85.26;98700.52;103155;1255;111191;-68
2023/03/07 05:04:31;;;;;;;181.30;41.20;;;;;;;-3.94;85.59;98700.52;103109;1259;139311;-68
2023/03/07 05:07:02;;;;;;;88.50;38.30;;;;;;;-3.97;85.37;98701.67;103034;1260;97820;-68
2023/03/07 05:09:50;;;;;;;97.50;42.50;;;;;;;-3.96;85.58;98700.67;102496;1259;1003403;-68
2023/03/07 05:12:18;;;;;;;277.10;48.50;;;;;;;-3.91;85.63;98699.67;102439;1258;1003388;-68
2023/03/07 05:14:47;;;;;;;188.20;46.70;;;;;;;-3.90;86.19;98704.08;103221;1258;110871;-68
2023/03/07 05:17:18;;;;;;;182.90;47.60;;;;;;;-3.93;85.69;98705.94;102903;1260;138824;-67
2023/03/07 05:19:46;;;;;;;182.50;49.50;;;;;;;-3.95;86.23;98705.41;102506;1254;1003390;-68
2023/03/07 05:22:14;;;;;;;167.90;47.40;;;;;;;-3.93;86.14;98703.91;101653;1258;1003623;-67
2023/03/07 05:24:42;;;;;;;197.70;46.90;;;;;;;-3.93;86.12;98711.21;103320;1254;97858;-68
2023/03/07 05:27:13;;;;;;;162.50;46.80;;;;;;;-3.98;86.16;98711.19;103245;1259;112333;-69
2023/03/07 05:29:40;;;;;;;208.80;50.30;;;;;;;-3.98;86.37;98705.75;103126;1254;138852;-66
2023/03/07 05:32:09;;;;;;;274.70;47.80;;;;;;;-3.98;86.61;98710.85;103310;1254;97864;-68
2023/03/07 05:34:38;;;;;;;244.20;46.60;;;;;;;-4.03;86.24;98707.96;102447;1260;1002884;-68
2023/03/07 05:37:05;;;;;;;155.60;46.10;;;;;;;-4.05;86.78;98712.38;103575;1254;97678;-67
2023/03/07 05:39:33;;;;;;;154.60;45.70;;;;;;;-4.03;86.90;98713.90;103455;1254;110445;-67
2023/03/07 05:42:00;;;;;;;192.30;42.50;;;;;;;-3.99;87.33;98718.32;103328;1254;139006;-68
2023/03/07 05:44:30;;;;;;;181.10;40.70;;;;;;;-3.97;87.54;98717.98;103616;1258;98440;-67
2023/03/07 05:47:00;;;;;;;118.70;38.30;;;;;;;-3.99;87.69;98716.45;102712;1254;1002279;-68
2023/03/07 05:49:28;;;;;;;214.00;40.90;;;;;;;-4.01;87.21;98721.89;103109;1260;97814;-68
2023/03/07 05:51:55;;;;;;;155.90;42.20;;;;;;;-4.05;87.55;98723.07;102533;1254;1002757;-67
2023/03/07 05:54:23;;;;;;;188.10;42.40;;;;;;;-4.09;87.59;98718.98;102357;1260;1003441;-68
2023/03/07 05:56:50;;;;;;;185.60;41.00;;;;;;;-4.14;87.77;98721.52;103028;1256;97792;-68
2023/03/07 05:59:18;;;;;;;132.50;41.50;;;;;;;-4.17;87.92;98728.47;103668;1258;140023;-68
2023/03/07 06:02:00;;;;;;;224.40;46.90;;;;;;;-4.18;87.91;98724.90;103490;1254;97768;-68
2023/03/07 06:04:27;;;;;;;239.20;48.70;;;;;;;-4.16;88.40;98726.60;103124;1254;138844;-67
2023/03/07 06:06:58;;;;;;;148.10;50.30;;;;;;;-4.13;88.64;98732.23;102176;1255;1003104;-68
2023/03/07 06:09:27;;;;;;;150.10;48.80;;;;;;;-4.12;88.21;98726.29;102375;1254;1002861;-70
2023/03/07 06:11:54;;;;;;;177.80;48.60;;;;;;;-4.13;88.01;98720.51;103173;1260;139254;-68
2023/03/07 06:14:25;;;;;;;126.10;48.10;;;;;;;-4.09;87.81;98717.98;103601;1254;97574;-70
2023/03/07 06:16:52;;;;;;;172.90;51.30;;;;;;;-4.04;87.92;98716.28;102992;1256;139365;-68
2023/03/07 06:19:19;;;;;;;159.30;47.30;;;;;;;-3.95;88.47;98721.55;104356;1256;106339;-69
2023/03/07 06:21:48;;;;;;;168.80;46.60;;;;;;;-3.88;87.66;98726.33;103650;1254;97791;-68
2023/03/07 06:24:15;;;;;;;132.90;47.40;;;;;;;-3.85;87.64;98722.75;104573;1254;107019;-68
2023/03/07 06:26:43;;;;;;;130.90;50.40;;;;;;;-3.82;87.71;98729.88;104116;1254;95944;-68
2023/03/07 06:29:11;;;;;;;105.10;46.10;;;;;;;-3.80;87.70;98728.87;103195;1254;139866;-70
2023/03/07 06:31:39;;;;;;;101.60;46.90;;;;;;;-3.78;87.46;98728.02;103558;1255;1002935;-69
2023/03/07 06:34:07;;;;;;;98.30;43.70;;;;;;;-3.75;87.61;98733.64;103531;1256;139243;-73
2023/03/07 06:36:34;;;;;;;104.80;45.40;;;;;;;-3.74;87.38;98730.94;103433;1254;107025;-76
2023/03/07 06:39:02;;;;;;;154.20;44.70;;;;;;;-3.74;87.32;98729.91;102967;1260;98299;-72
2023/03/07 06:41:30;;;;;;;155.80;43.60;;;;;;;-3.76;87.30;98731.09;102928;1256;138798;-72
2023/03/07 06:43:59;;;;;;;106.80;41.30;;;;;;;-3.78;87.22;98727.34;103059;1254;107681;-72
2023/03/07 06:46:29;;;;;;;100.50;40.00;;;;;;;-3.76;87.00;98723.29;102188;1254;1003171;-72
2023/03/07 06:49:02;;;;;;;96.70;41.90;;;;;;;-3.75;86.71;98713.94;102211;1254;1003810;-69
2023/03/07 06:51:29;;;;;;;92.20;40.50;;;;;;;-3.72;86.85;98717.51;103090;1256;97669;-70
2023/03/07 06:53:57;;;;;;;94.10;41.90;;;;;;;-3.68;87.12;98716.82;103086;1254;138602;-69
2023/03/07 06:56:25;;;;;;;91.60;43.30;;;;;;;-3.63;87.13;98713.92;103107;1256;107318;-69
2023/03/07 06:58:52;;;;;;;92.70;41.10;;;;;;;-3.53;87.03;98709.70;102188;1255;1002510;-69
2023/03/07 07:01:23;;;;;;;98.10;42.70;;;;;;;-3.43;86.81;98707.98;103306;1254;107952;-71
2023/03/07 07:03:54;;;;;;;86.60;40.50;;;;;;;-3.35;86.48;98704.75;103169;1256;138859;-70
2023/03/07 07:06:22;;;;;;;89.80;41.40;;;;;;;-3.25;86.22;98704.56;103333;1256;111377;-72
2023/03/07 07:08:49;;;;;;;80.50;38.50;;;;;;;-3.12;85.90;98696.89;103064;1257;111808;-70
2023/03/07 07:11:17;;;;;;;83.00;38.30;;;;;;;-2.97;85.51;98698.20;103168;1254;138813;-76
2023/03/07 07:13:45;;;;;;;75.00;36.90;;;;;;;-2.89;84.90;98694.44;104173;1256;107941;-73
2023/03/07 07:16:15;;;;;;;73.30;36.00;;;;;;;-2.88;84.33;98688.13;102795;1260;138806;-71
2023/03/07 07:18:43;;;;;;;70.00;34.40;;;;;;;-2.81;83.82;98685.73;102423;1254;1003257;-71
2023/03/07 07:21:13;;;;;;;71.70;33.70;;;;;;;-2.77;83.44;98687.59;102867;1257;107038;-71
2023/03/07 07:23:44;;;;;;;74.50;34.50;;;;;;;-2.79;83.34;98687.27;102249;1256;1003674;-73
2023/03/07 07:26:23;;;;;;;83.50;33.40;;;;;;;-2.75;83.54;98683.85;102994;1256;107980;-68
2023/03/07 07:28:50;;;;;;;76.70;30.30;;;;;;;-2.75;83.33;98680.61;103125;1254;138882;-69
2023/03/07 07:31:18;;;;;;;73.30;31.80;;;;;;;-2.75;83.23;98678.23;103822;1254;112435;-69
2023/03/07 07:33:46;;;;;;;61.60;29.90;;;;;;;-2.68;83.14;98671.23;103239;1256;107368;-70
2023/03/07 07:36:14;;;;;;;60.10;28.90;;;;;;;-2.47;82.55;98671.30;103925;1254;97942;-68
2023/03/07 07:38:41;;;;;;;64.80;30.50;;;;;;;-2.27;82.29;98672.21;103486;1254;107769;-72
2023/03/07 07:41:09;;;;;;;63.00;30.30;;;;;;;-2.19;82.08;98668.57;102551;1255;1003283;-71
2023/03/07 07:43:36;;;;;;;62.40;30.60;;;;;;;-2.24;81.54;98669.46;103902;1257;112030;-71
2023/03/07 07:46:09;;;;;;;63.70;29.60;;;;;;;-2.23;81.68;98665.03;102696;1255;1002733;-70
2023/03/07 07:48:37;;;;;;;60.30;31.00;;;;;;;-2.00;81.72;98665.05;103005;1255;1002561;-70
2023/03/07 07:51:05;;;;;;;56.00;28.10;;;;;;;-1.41;81.56;98663.02;103068;1254;108130;-70
2023/03/07 07:53:35;;;;;;;51.80;28.80;;;;;;;-0.06;79.88;98660.84;102679;1254;1003072;-71
2023/03/07 07:56:03;;;;;;;50.00;27.90;;;;;;;1.39;76.81;98652.11;102888;1254;110973;-74
2023/03/07 07:58:31;;;;;;;52.30;30.20;;;;;;;2.53;74.78;98645.91;102727;1254;138530;-76
2023/03/07 08:01:00;;;;;;;52.30;29.40;;;;;;;3.38;72.04;98644.47;101959;1260;1002462;-74
2023/03/07 08:03:28;;;;;;;47.50;28.50;;;;;;;3.90;70.43;98639.83;103226;1257;107654;-74
2023/03/07 08:06:20;;;;;;;50.70;28.90;;;;;;;4.51;69.64;98629.92;103148;1256;97822;-72
2023/03/07 08:08:48;;;;;;;50.00;28.60;;;;;;;5.33;67.50;98623.94;103409;1254;110295;-75
2023/03/07 08:11:16;;;;;;;45.50;27.80;;;;;;;6.00;65.21;98623.31;103046;1257;139463;-74
2023/03/07 08:13:43;;;;;;;47.80;28.60;;;;;;;6.52;64.74;98614.46;103126;1256;97819;-74
2023/03/07 08:16:15;;;;;;;46.80;28.10;;;;;;;7.22;63.12;98614.55;101524;1254;1015674;-78
2023/03/07 08:18:47;;;;;;;39.60;26.60;;;;;;;7.77;59.25;98616.70;103059;1254;97760;-75
2023/03/07 08:21:14;;;;;;;47.90;28.50;;;;;;;8.09;58.24;98609.48;103155;1257;112113;-74
2023/03/07 08:23:42;;;;;;;41.50;26.80;;;;;;;8.48;57.62;98607.06;103067;1256;138801;-73
2023/03/07 08:26:12;;;;;;;41.30;25.60;;;;;;;8.91;55.55;98596.71;103246;1256;96427;-69
2023/03/07 08:28:40;;;;;;;37.30;24.70;;;;;;;9.30;54.02;98588.77;103019;1258;137646;-70
2023/03/07 08:31:10;;;;;;;40.50;25.90;;;;;;;9.19;54.28;98587.80;103199;1256;97789;-72
2023/03/07 08:33:39;;;;;;;38.10;26.10;;;;;;;8.48;54.76;98586.42;103253;1257;111370;-70
2023/03/07 08:36:08;;;;;;;41.30;27.30;;;;;;;7.71;53.97;98595.50;103161;1254;137629;-70
2023/03/07 08:38:35;;;;;;;34.00;24.10;;;;;;;7.01;54.58;98592.84;103401;1256;98147;-70
2023/03/07 08:41:04;;;;;;;37.40;24.30;;;;;;;7.07;54.89;98586.36;102306;1258;1002833;-69
2023/03/07 08:43:36;;;;;;;34.00;22.40;;;;;;;7.58;54.52;98583.19;103178;1257;97772;-69
2023/03/07 08:46:23;;;;;;;32.70;22.40;;;;;;;8.14;52.38;98582.77;103168;1257;137840;-69
2023/03/07 08:48:51;;;;;;;34.70;22.80;;;;;;;8.41;51.81;98577.27;103149;1256;107902;-70
2023/03/07 08:51:19;;;;;;;34.90;22.90;;;;;;;8.72;51.57;98568.95;103187;1255;98399;-69
2023/03/07 08:53:47;;;;;;;33.60;22.30;;;;;;;8.93;50.43;98568.55;103112;1254;137650;-69
2023/03/07 08:56:16;;;;;;;31.40;23.00;;;;;;;9.20;50.63;98571.13;103178;1256;97706;-70
2023/03/07 08:58:47;;;;;;;30.70;21.90;;;;;;;9.39;49.79;98568.20;103152;1254;137745;-78
2023/03/07 09:01:14;;;;;;;30.60;22.10;;;;;;;9.62;49.19;98568.13;103090;1257;107709;-69
2023/03/07 09:03:42;;;;;;;29.60;21.70;;;;;;;9.76;48.06;98567.18;103117;1254;98300;-69
2023/03/07 09:06:17;;;;;;;28.30;21.50;;;;;;;9.66;48.04;98565.48;103086;1256;137528;-68
2023/03/07 09:08:47;;;;;;;30.60;21.70;;;;;;;9.62;48.69;98561.35;102981;1254;97696;-68
2023/03/07 09:11:18;;;;;;;27.10;21.00;;;;;;;9.50;46.56;98571.08;102945;1254;137560;-67
2023/03/07 09:13:45;;;;;;;27.90;21.00;;;;;;;9.30;46.81;98556.89;103065;1255;107375;-67
2023/03/07 09:16:19;;;;;;;29.10;20.30;;;;;;;9.25;47.64;98556.63;103052;1257;138175;-67
2023/03/07 09:18:46;;;;;;;25.50;19.90;;;;;;;9.21;48.29;98556.17;103673;1254;107635;-67
2023/03/07 09:21:14;;;;;;;27.00;20.40;;;;;;;9.10;48.27;98553.77;103246;1254;97791;-67
2023/03/07 09:23:42;;;;;;;26.20;20.50;;;;;;;8.99;48.12;98560.77;103165;1256;137873;-67
2023/03/07 09:26:10;;;;;;;28.40;20.80;;;;;;;8.96;48.60;98558.18;103338;1254;108470;-67
2023/03/07 09:28:37;;;;;;;29.10;21.10;;;;;;;9.08;49.95;98541.92;103660;1254;137832;-68
2023/03/07 09:31:10;;;;;;;31.10;21.20;;;;;;;9.44;49.15;98543.77;103097;1257;108805;-68
2023/03/07 09:33:42;;;;;;;30.10;22.30;;;;;;;9.53;47.90;98547.81;103147;1254;97810;-68
2023/03/07 09:36:14;;;;;;;26.20;20.60;;;;;;;9.26;47.15;98559.18;103055;1257;137948;-69
2023/03/07 09:38:42;;;;;;;29.60;21.30;;;;;;;8.76;47.66;98542.05;103127;1254;107597;-69
2023/03/07 09:41:23;;;;;;;30.70;22.80;;;;;;;7.97;48.87;98533.52;103088;1257;137790;-69
2023/03/07 09:43:57;;;;;;;29.60;21.80;;;;;;;7.20;50.65;98541.16;103056;1255;106772;-69
2023/03/07 09:46:55;;;;;;;33.00;22.90;;;;;;;6.78;52.00;98541.68;103050;1257;138530;-69
2023/03/07 09:49:29;;;;;;;32.60;23.00;;;;;;;6.70;53.21;98538.42;103199;1254;112211;-68
2023/03/07 09:52:02;;;;;;;34.70;23.50;;;;;;;6.89;54.26;98535.33;102444;1255;1003175;-69
2023/03/07 09:54:39;;;;;;;34.20;24.30;;;;;;;7.28;54.18;98527.16;103353;1255;99435;-69
2023/03/07 09:57:13;;;;;;;35.90;23.00;;;;;;;7.55;53.78;98524.70;103636;1254;109094;-68
2023/03/07 09:59:46;;;;;;;34.00;23.40;;;;;;;7.75;53.05;98507.98;103217;1254;138155;-69
2023/03/07 10:02:20;;;;;;;35.80;23.20;;;;;;;7.85;51.98;98509.02;103881;1254;111510;-71
2023/03/07 10:04:55;;;;;;;34.20;23.60;;;;;;;7.50;52.66;98505.86;103056;1257;139103;-70
2023/03/07 10:07:26;;;;;;;37.50;25.10;;;;;;;7.15;53.66;98510.45;103336;1256;98434;-69
2023/03/07 10:10:00;;;;;;;39.30;24.50;;;;;;;6.77;54.01;98514.27;101987;1259;138612;-70
2023/03/07 10:12:50;;;;;;;37.50;25.20;;;;;;;6.21;54.44;98514.81;102910;1254;96912;-72
2023/03/07 10:15:29;;;;;;;36.40;24.90;;;;;;;5.73;55.97;98494.84;103046;1257;112799;-68
2023/03/07 10:18:50;;;;;;;42.40;27.80;;;;;;;5.24;57.21;98499.86;101537;1257;1003753;-68
2023/03/07 10:21:31;;;;;;;41.90;27.50;;;;;;;4.64;58.75;98506.09;102726;1260;98349;-68
2023/03/07 10:24:27;;;;;;;48.10;29.70;;;;;;;4.08;60.21;98504.59;102915;1259;137538;-68
2023/03/07 10:27:03;;;;;;;45.00;28.10;;;;;;;3.48;62.35;98511.18;101983;1262;1003472;-69
2023/03/07 10:29:47;;;;;;;46.90;29.80;;;;;;;3.20;63.68;98500.70;102718;1264;139748;-68
2023/03/07 10:32:23;;;;;;;46.60;28.90;;;;;;;2.88;64.99;98510.23;102764;1259;108536;-69
2023/03/07 10:34:58;;;;;;;47.70;28.50;;;;;;;2.62;65.60;98496.73;101881;1259;1003822;-69
2023/03/07 10:37:35;;;;;;;48.90;29.20;;;;;;;2.43;66.71;98491.77;102738;1259;106978;-69
2023/03/07 10:40:03;;;;;;;52.70;30.00;;;;;;;2.26;67.54;98488.10;103208;1261;138636;-69
2023/03/07 10:42:38;;;;;;;57.20;32.10;;;;;;;2.08;69.22;98480.20;102787;1263;112442;-69
2023/03/07 10:45:07;;;;;;;55.50;31.70;;;;;;;1.97;69.13;98482.02;102756;1263;107786;-69
2023/03/07 10:47:35;;;;;;;52.30;32.00;;;;;;;1.90;70.07;98462.51;103250;1259;138388;-68
2023/03/07 10:50:23;;;;;;;53.40;30.70;;;;;;;1.84;70.94;98466.09;102755;1261;108343;-69
2023/03/07 10:52:54;;;;;;;53.80;31.70;;;;;;;1.76;71.14;98452.90;102988;1254;138427;-69
2023/03/07 10:55:37;;;;;;;60.00;33.20;;;;;;;1.74;71.31;98440.64;103243;1257;111979;-69
2023/03/07 10:58:19;;;;;;;57.40;32.70;;;;;;;1.74;72.04;98431.19;102396;1254;1003306;-69
2023/03/07 11:00:58;;;;;;;56.10;31.70;;;;;;;1.89;72.52;98437.50;103238;1255;98331;-69
2023/03/07 11:03:33;;;;;;;57.30;31.20;;;;;;;2.16;72.42;98433.53;103144;1254;107464;-71
2023/03/07 11:06:51;;;;;;;59.80;31.60;;;;;;;2.49;71.64;98424.38;103166;1256;97598;-69
2023/03/07 11:09:23;;;;;;;57.20;32.90;;;;;;;2.63;71.56;98427.20;102665;1260;111707;-70
2023/03/07 11:11:54;;;;;;;53.80;31.30;;;;;;;2.93;71.09;98415.16;102921;1264;139725;-70
2023/03/07 11:14:50;;;;;;;53.30;32.10;;;;;;;3.04;70.82;98408.96;102537;1260;97911;-69
2023/03/07 11:17:22;;;;;;;57.10;32.50;;;;;;;3.17;70.65;98405.13;102329;1261;138235;-68
2023/03/07 11:20:21;;;;;;;55.10;31.70;;;;;;;3.21;70.23;98398.50;102559;1264;99146;-70
2023/03/07 11:22:49;;;;;;;54.80;31.40;;;;;;;3.19;70.71;98395.96;102880;1262;1003286;-72